sensor_id;sensor_type;location;lat;lon;timestamp;P1;durP1;ratioP1;P2;durP2;ratioP2
74900;SDS011;63461;51.416;6.758;2023-07-16T00:02:05;4.85;;;1.70;;
74900;SDS011;63461;51.416;6.758;2023-07-16T00:04:31;4.88;;;1.75;;
74900;SDS011;63461;51.416;6.758;2023-07-16T00:06:59;3.38;;;1.75;;
74900;SDS011;63461;51.416;6.758;2023-07-16T00:09:26;3.67;;;1.77;;
74900;SDS011;63461;51.416;6.758;2023-07-16T00:11:51;7.90;;;2.08;;
74900;SDS011;63461;51.416;6.758;2023-07-16T00:14:17;5.00;;;2.28;;
74900;SDS011;63461;51.416;6.758;2023-07-16T00:16:43;2.65;;;1.50;;
74900;SDS011;63461;51.416;6.758;2023-07-16T00:19:09;4.25;;;1.67;;
74900;SDS011;63461;51.416;6.758;2023-07-16T00:21:36;4.70;;;1.92;;
74900;SDS011;63461;51.416;6.758;2023-07-16T00:24:02;5.30;;;1.70;;
74900;SDS011;63461;51.416;6.758;2023-07-16T00:26:28;6.05;;;2.60;;
74900;SDS011;63461;51.416;6.758;2023-07-16T00:28:54;3.92;;;1.73;;
74900;SDS011;63461;51.416;6.758;2023-07-16T00:31:20;4.35;;;2.00;;
74900;SDS011;63461;51.416;6.758;2023-07-16T00:33:46;5.25;;;2.00;;
74900;SDS011;63461;51.416;6.758;2023-07-16T00:36:12;3.85;;;2.10;;
74900;SDS011;63461;51.416;6.758;2023-07-16T00:38:37;5.07;;;2.00;;
74900;SDS011;63461;51.416;6.758;2023-07-16T00:41:05;4.47;;;2.20;;
74900;SDS011;63461;51.416;6.758;2023-07-16T00:43:31;5.65;;;2.28;;
74900;SDS011;63461;51.416;6.758;2023-07-16T00:45:57;5.35;;;2.00;;
74900;SDS011;63461;51.416;6.758;2023-07-16T00:48:23;3.75;;;2.13;;
74900;SDS011;63461;51.416;6.758;2023-07-16T00:50:49;6.93;;;1.92;;
74900;SDS011;63461;51.416;6.758;2023-07-16T00:53:17;4.78;;;2.30;;
74900;SDS011;63461;51.416;6.758;2023-07-16T00:55:44;6.80;;;2.42;;
74900;SDS011;63461;51.416;6.758;2023-07-16T00:58:10;5.43;;;2.70;;
74900;SDS011;63461;51.416;6.758;2023-07-16T01:00:37;7.68;;;2.03;;
74900;SDS011;63461;51.416;6.758;2023-07-16T01:03:05;3.75;;;2.00;;
74900;SDS011;63461;51.416;6.758;2023-07-16T01:05:49;7.15;;;2.28;;
74900;SDS011;63461;51.416;6.758;2023-07-16T01:08:20;2.95;;;1.95;;
74900;SDS011;63461;51.416;6.758;2023-07-16T01:10:55;6.53;;;2.30;;
74900;SDS011;63461;51.416;6.758;2023-07-16T01:13:22;4.68;;;1.85;;
74900;SDS011;63461;51.416;6.758;2023-07-16T01:15:48;5.82;;;2.00;;
74900;SDS011;63461;51.416;6.758;2023-07-16T01:18:14;3.95;;;2.38;;
74900;SDS011;63461;51.416;6.758;2023-07-16T01:20:40;7.20;;;2.63;;
74900;SDS011;63461;51.416;6.758;2023-07-16T01:26:19;7.05;;;2.28;;
74900;SDS011;63461;51.416;6.758;2023-07-16T01:31:41;7.10;;;2.55;;
74900;SDS011;63461;51.416;6.758;2023-07-16T01:34:08;6.57;;;2.05;;
74900;SDS011;63461;51.416;6.758;2023-07-16T01:36:36;5.47;;;2.10;;
74900;SDS011;63461;51.416;6.758;2023-07-16T01:39:03;8.27;;;2.67;;
74900;SDS011;63461;51.416;6.758;2023-07-16T01:41:30;4.45;;;2.45;;
74900;SDS011;63461;51.416;6.758;2023-07-16T01:43:55;4.35;;;2.20;;
74900;SDS011;63461;51.416;6.758;2023-07-16T01:46:22;8.75;;;2.40;;
74900;SDS011;63461;51.416;6.758;2023-07-16T01:48:48;5.60;;;2.40;;
74900;SDS011;63461;51.416;6.758;2023-07-16T01:51:14;7.05;;;1.90;;
74900;SDS011;63461;51.416;6.758;2023-07-16T01:53:40;5.43;;;1.90;;
74900;SDS011;63461;51.416;6.758;2023-07-16T01:56:06;5.93;;;2.00;;
74900;SDS011;63461;51.416;6.758;2023-07-16T01:58:32;6.38;;;2.15;;
74900;SDS011;63461;51.416;6.758;2023-07-16T02:00:57;5.07;;;2.00;;
74900;SDS011;63461;51.416;6.758;2023-07-16T02:03:23;6.18;;;1.92;;
74900;SDS011;63461;51.416;6.758;2023-07-16T02:05:49;9.05;;;2.33;;
74900;SDS011;63461;51.416;6.758;2023-07-16T02:08:16;6.20;;;1.95;;
74900;SDS011;63461;51.416;6.758;2023-07-16T02:10:42;6.22;;;1.88;;
74900;SDS011;63461;51.416;6.758;2023-07-16T02:13:10;4.88;;;2.38;;
74900;SDS011;63461;51.416;6.758;2023-07-16T02:15:36;6.68;;;2.38;;
74900;SDS011;63461;51.416;6.758;2023-07-16T02:18:02;5.25;;;2.40;;
74900;SDS011;63461;51.416;6.758;2023-07-16T02:20:29;8.43;;;2.67;;
74900;SDS011;63461;51.416;6.758;2023-07-16T02:22:55;6.72;;;2.58;;
74900;SDS011;63461;51.416;6.758;2023-07-16T02:25:21;9.65;;;2.72;;
74900;SDS011;63461;51.416;6.758;2023-07-16T02:27:47;9.40;;;2.63;;
74900;SDS011;63461;51.416;6.758;2023-07-16T02:30:14;9.10;;;2.80;;
74900;SDS011;63461;51.416;6.758;2023-07-16T02:32:42;7.68;;;2.70;;
74900;SDS011;63461;51.416;6.758;2023-07-16T02:35:08;11.65;;;2.70;;
74900;SDS011;63461;51.416;6.758;2023-07-16T02:37:34;8.43;;;2.65;;
74900;SDS011;63461;51.416;6.758;2023-07-16T02:40:00;7.45;;;2.58;;
74900;SDS011;63461;51.416;6.758;2023-07-16T02:42:25;7.85;;;2.42;;
74900;SDS011;63461;51.416;6.758;2023-07-16T02:44:51;4.18;;;2.20;;
74900;SDS011;63461;51.416;6.758;2023-07-16T02:47:17;8.38;;;2.38;;
74900;SDS011;63461;51.416;6.758;2023-07-16T02:49:43;8.43;;;2.65;;
74900;SDS011;63461;51.416;6.758;2023-07-16T02:52:08;10.20;;;2.20;;
74900;SDS011;63461;51.416;6.758;2023-07-16T02:54:37;8.65;;;2.63;;
74900;SDS011;63461;51.416;6.758;2023-07-16T02:57:03;7.45;;;2.33;;
74900;SDS011;63461;51.416;6.758;2023-07-16T02:59:30;9.75;;;2.22;;
74900;SDS011;63461;51.416;6.758;2023-07-16T03:01:56;8.63;;;2.38;;
74900;SDS011;63461;51.416;6.758;2023-07-16T03:04:22;8.77;;;2.30;;
74900;SDS011;63461;51.416;6.758;2023-07-16T03:06:48;8.82;;;2.13;;
74900;SDS011;63461;51.416;6.758;2023-07-16T03:09:14;6.35;;;2.58;;
74900;SDS011;63461;51.416;6.758;2023-07-16T03:11:40;11.88;;;2.88;;
74900;SDS011;63461;51.416;6.758;2023-07-16T03:14:05;8.05;;;2.78;;
74900;SDS011;63461;51.416;6.758;2023-07-16T03:16:31;7.20;;;2.80;;
74900;SDS011;63461;51.416;6.758;2023-07-16T03:18:57;9.00;;;3.33;;
74900;SDS011;63461;51.416;6.758;2023-07-16T03:21:23;7.22;;;3.03;;
74900;SDS011;63461;51.416;6.758;2023-07-16T03:23:48;11.57;;;2.63;;
74900;SDS011;63461;51.416;6.758;2023-07-16T03:26:14;5.55;;;2.78;;
74900;SDS011;63461;51.416;6.758;2023-07-16T03:28:40;6.10;;;2.53;;
74900;SDS011;63461;51.416;6.758;2023-07-16T03:31:08;8.85;;;2.78;;
74900;SDS011;63461;51.416;6.758;2023-07-16T03:33:36;6.53;;;2.38;;
74900;SDS011;63461;51.416;6.758;2023-07-16T03:36:03;9.07;;;3.28;;
74900;SDS011;63461;51.416;6.758;2023-07-16T03:38:29;9.63;;;3.38;;
74900;SDS011;63461;51.416;6.758;2023-07-16T03:40:54;12.25;;;3.70;;
74900;SDS011;63461;51.416;6.758;2023-07-16T03:43:20;12.52;;;3.45;;
74900;SDS011;63461;51.416;6.758;2023-07-16T03:45:47;9.80;;;2.50;;
74900;SDS011;63461;51.416;6.758;2023-07-16T03:48:14;14.95;;;3.83;;
74900;SDS011;63461;51.416;6.758;2023-07-16T03:50:39;10.43;;;3.50;;
74900;SDS011;63461;51.416;6.758;2023-07-16T03:53:05;13.60;;;3.72;;
74900;SDS011;63461;51.416;6.758;2023-07-16T03:55:31;13.77;;;3.50;;
74900;SDS011;63461;51.416;6.758;2023-07-16T03:57:57;13.25;;;3.50;;
74900;SDS011;63461;51.416;6.758;2023-07-16T04:00:26;11.18;;;3.08;;
74900;SDS011;63461;51.416;6.758;2023-07-16T04:02:52;11.90;;;2.90;;
74900;SDS011;63461;51.416;6.758;2023-07-16T04:05:18;6.35;;;2.30;;
74900;SDS011;63461;51.416;6.758;2023-07-16T04:07:44;6.40;;;2.13;;
74900;SDS011;63461;51.416;6.758;2023-07-16T04:10:10;8.57;;;2.20;;
74900;SDS011;63461;51.416;6.758;2023-07-16T04:12:35;7.55;;;2.25;;
74900;SDS011;63461;51.416;6.758;2023-07-16T04:15:06;9.30;;;1.98;;
74900;SDS011;63461;51.416;6.758;2023-07-16T04:17:32;7.10;;;2.22;;
74900;SDS011;63461;51.416;6.758;2023-07-16T04:19:58;9.15;;;2.58;;
74900;SDS011;63461;51.416;6.758;2023-07-16T04:22:24;13.13;;;2.67;;
74900;SDS011;63461;51.416;6.758;2023-07-16T04:24:50;14.98;;;3.30;;
74900;SDS011;63461;51.416;6.758;2023-07-16T04:27:15;15.65;;;3.33;;
74900;SDS011;63461;51.416;6.758;2023-07-16T04:29:41;13.68;;;3.28;;
74900;SDS011;63461;51.416;6.758;2023-07-16T04:32:07;7.22;;;2.60;;
74900;SDS011;63461;51.416;6.758;2023-07-16T04:34:35;6.18;;;2.58;;
74900;SDS011;63461;51.416;6.758;2023-07-16T04:37:01;10.95;;;3.03;;
74900;SDS011;63461;51.416;6.758;2023-07-16T04:39:27;13.18;;;2.92;;
74900;SDS011;63461;51.416;6.758;2023-07-16T04:41:52;11.43;;;3.35;;
74900;SDS011;63461;51.416;6.758;2023-07-16T04:44:18;7.45;;;2.33;;
74900;SDS011;63461;51.416;6.758;2023-07-16T04:46:44;8.85;;;2.20;;
74900;SDS011;63461;51.416;6.758;2023-07-16T04:49:09;6.68;;;2.10;;
74900;SDS011;63461;51.416;6.758;2023-07-16T04:51:35;13.05;;;3.10;;
74900;SDS011;63461;51.416;6.758;2023-07-16T04:54:01;9.32;;;2.85;;
74900;SDS011;63461;51.416;6.758;2023-07-16T04:56:27;9.07;;;3.03;;
74900;SDS011;63461;51.416;6.758;2023-07-16T04:58:53;7.40;;;2.63;;
74900;SDS011;63461;51.416;6.758;2023-07-16T05:01:18;13.02;;;2.60;;
74900;SDS011;63461;51.416;6.758;2023-07-16T05:03:45;9.65;;;2.25;;
74900;SDS011;63461;51.416;6.758;2023-07-16T05:06:11;8.75;;;2.50;;
74900;SDS011;63461;51.416;6.758;2023-07-16T05:08:37;14.43;;;3.90;;
74900;SDS011;63461;51.416;6.758;2023-07-16T05:11:03;15.82;;;3.47;;
74900;SDS011;63461;51.416;6.758;2023-07-16T05:13:28;11.38;;;3.33;;
74900;SDS011;63461;51.416;6.758;2023-07-16T05:15:54;14.18;;;3.58;;
74900;SDS011;63461;51.416;6.758;2023-07-16T05:18:20;6.78;;;3.05;;
74900;SDS011;63461;51.416;6.758;2023-07-16T05:20:47;7.95;;;2.30;;
74900;SDS011;63461;51.416;6.758;2023-07-16T05:23:14;9.52;;;2.92;;
74900;SDS011;63461;51.416;6.758;2023-07-16T05:25:45;9.15;;;2.42;;
74900;SDS011;63461;51.416;6.758;2023-07-16T05:28:12;9.13;;;2.50;;
74900;SDS011;63461;51.416;6.758;2023-07-16T05:30:38;10.38;;;2.92;;
74900;SDS011;63461;51.416;6.758;2023-07-16T05:33:03;11.27;;;2.47;;
74900;SDS011;63461;51.416;6.758;2023-07-16T05:35:29;11.07;;;3.55;;
74900;SDS011;63461;51.416;6.758;2023-07-16T05:37:55;8.90;;;3.30;;
74900;SDS011;63461;51.416;6.758;2023-07-16T05:40:21;12.02;;;3.80;;
74900;SDS011;63461;51.416;6.758;2023-07-16T05:42:46;16.35;;;3.42;;
74900;SDS011;63461;51.416;6.758;2023-07-16T05:45:12;18.20;;;4.28;;
74900;SDS011;63461;51.416;6.758;2023-07-16T05:47:38;10.52;;;3.95;;
74900;SDS011;63461;51.416;6.758;2023-07-16T05:50:04;13.00;;;4.07;;
74900;SDS011;63461;51.416;6.758;2023-07-16T05:52:30;9.95;;;3.15;;
74900;SDS011;63461;51.416;6.758;2023-07-16T05:54:57;10.90;;;3.00;;
74900;SDS011;63461;51.416;6.758;2023-07-16T05:57:22;14.38;;;3.97;;
74900;SDS011;63461;51.416;6.758;2023-07-16T05:59:48;12.45;;;3.97;;
74900;SDS011;63461;51.416;6.758;2023-07-16T06:02:14;11.02;;;3.67;;
74900;SDS011;63461;51.416;6.758;2023-07-16T06:04:40;11.10;;;3.40;;
74900;SDS011;63461;51.416;6.758;2023-07-16T06:07:05;12.07;;;3.35;;
74900;SDS011;63461;51.416;6.758;2023-07-16T06:09:32;8.10;;;3.15;;
74900;SDS011;63461;51.416;6.758;2023-07-16T06:11:58;12.32;;;3.55;;
74900;SDS011;63461;51.416;6.758;2023-07-16T06:14:24;9.25;;;2.88;;
74900;SDS011;63461;51.416;6.758;2023-07-16T06:16:50;11.80;;;3.70;;
74900;SDS011;63461;51.416;6.758;2023-07-16T06:19:15;9.43;;;3.22;;
74900;SDS011;63461;51.416;6.758;2023-07-16T06:21:41;9.05;;;3.97;;
74900;SDS011;63461;51.416;6.758;2023-07-16T06:24:07;13.40;;;3.83;;
74900;SDS011;63461;51.416;6.758;2023-07-16T06:26:33;9.45;;;2.90;;
74900;SDS011;63461;51.416;6.758;2023-07-16T06:28:58;6.90;;;3.38;;
74900;SDS011;63461;51.416;6.758;2023-07-16T06:31:24;10.25;;;3.50;;
74900;SDS011;63461;51.416;6.758;2023-07-16T06:33:50;11.40;;;2.97;;
74900;SDS011;63461;51.416;6.758;2023-07-16T06:36:16;13.20;;;3.45;;
74900;SDS011;63461;51.416;6.758;2023-07-16T06:38:41;12.63;;;4.13;;
74900;SDS011;63461;51.416;6.758;2023-07-16T06:41:07;8.68;;;3.45;;
74900;SDS011;63461;51.416;6.758;2023-07-16T06:43:33;11.27;;;3.60;;
74900;SDS011;63461;51.416;6.758;2023-07-16T06:45:59;14.98;;;4.00;;
74900;SDS011;63461;51.416;6.758;2023-07-16T06:48:24;9.60;;;4.40;;
74900;SDS011;63461;51.416;6.758;2023-07-16T06:50:50;14.20;;;3.22;;
74900;SDS011;63461;51.416;6.758;2023-07-16T06:53:16;10.43;;;3.97;;
74900;SDS011;63461;51.416;6.758;2023-07-16T06:55:42;12.38;;;3.70;;
74900;SDS011;63461;51.416;6.758;2023-07-16T06:58:10;14.60;;;3.83;;
74900;SDS011;63461;51.416;6.758;2023-07-16T07:00:36;13.32;;;3.15;;
74900;SDS011;63461;51.416;6.758;2023-07-16T07:03:02;7.93;;;3.53;;
74900;SDS011;63461;51.416;6.758;2023-07-16T07:05:28;10.82;;;3.95;;
74900;SDS011;63461;51.416;6.758;2023-07-16T07:07:54;12.07;;;3.97;;
74900;SDS011;63461;51.416;6.758;2023-07-16T07:10:19;10.95;;;3.72;;
74900;SDS011;63461;51.416;6.758;2023-07-16T07:12:45;10.55;;;3.58;;
74900;SDS011;63461;51.416;6.758;2023-07-16T07:15:11;11.95;;;3.38;;
74900;SDS011;63461;51.416;6.758;2023-07-16T07:17:37;11.73;;;3.80;;
74900;SDS011;63461;51.416;6.758;2023-07-16T07:20:03;11.48;;;3.83;;
74900;SDS011;63461;51.416;6.758;2023-07-16T07:22:29;15.93;;;3.88;;
74900;SDS011;63461;51.416;6.758;2023-07-16T07:24:55;12.48;;;3.88;;
74900;SDS011;63461;51.416;6.758;2023-07-16T07:27:21;9.02;;;3.47;;
74900;SDS011;63461;51.416;6.758;2023-07-16T07:29:47;10.40;;;4.20;;
74900;SDS011;63461;51.416;6.758;2023-07-16T07:32:18;10.45;;;3.65;;
74900;SDS011;63461;51.416;6.758;2023-07-16T07:34:44;11.27;;;3.13;;
74900;SDS011;63461;51.416;6.758;2023-07-16T07:37:10;10.70;;;4.60;;
74900;SDS011;63461;51.416;6.758;2023-07-16T07:39:36;10.63;;;3.70;;
74900;SDS011;63461;51.416;6.758;2023-07-16T07:42:02;11.77;;;3.83;;
74900;SDS011;63461;51.416;6.758;2023-07-16T07:44:27;13.15;;;3.65;;
74900;SDS011;63461;51.416;6.758;2023-07-16T07:46:53;12.70;;;3.80;;
74900;SDS011;63461;51.416;6.758;2023-07-16T07:49:19;15.65;;;4.53;;
74900;SDS011;63461;51.416;6.758;2023-07-16T07:51:45;13.05;;;4.20;;
74900;SDS011;63461;51.416;6.758;2023-07-16T07:54:12;11.25;;;4.68;;
74900;SDS011;63461;51.416;6.758;2023-07-16T07:56:38;14.98;;;3.97;;
74900;SDS011;63461;51.416;6.758;2023-07-16T07:59:04;13.55;;;4.45;;
74900;SDS011;63461;51.416;6.758;2023-07-16T08:01:30;10.38;;;4.32;;
74900;SDS011;63461;51.416;6.758;2023-07-16T08:03:56;10.63;;;3.90;;
74900;SDS011;63461;51.416;6.758;2023-07-16T08:06:21;10.00;;;3.33;;
74900;SDS011;63461;51.416;6.758;2023-07-16T08:08:47;12.68;;;4.18;;
74900;SDS011;63461;51.416;6.758;2023-07-16T08:11:13;10.35;;;4.30;;
74900;SDS011;63461;51.416;6.758;2023-07-16T08:13:38;11.00;;;4.10;;
74900;SDS011;63461;51.416;6.758;2023-07-16T08:16:04;7.93;;;3.00;;
74900;SDS011;63461;51.416;6.758;2023-07-16T08:18:30;11.90;;;3.72;;
74900;SDS011;63461;51.416;6.758;2023-07-16T08:20:56;11.95;;;3.97;;
74900;SDS011;63461;51.416;6.758;2023-07-16T08:23:21;8.57;;;4.15;;
74900;SDS011;63461;51.416;6.758;2023-07-16T08:25:47;10.43;;;4.38;;
74900;SDS011;63461;51.416;6.758;2023-07-16T08:28:15;12.93;;;4.25;;
74900;SDS011;63461;51.416;6.758;2023-07-16T08:30:41;11.75;;;4.40;;
74900;SDS011;63461;51.416;6.758;2023-07-16T08:33:07;14.80;;;4.68;;
74900;SDS011;63461;51.416;6.758;2023-07-16T08:35:32;10.85;;;4.15;;
74900;SDS011;63461;51.416;6.758;2023-07-16T08:37:58;12.23;;;4.25;;
74900;SDS011;63461;51.416;6.758;2023-07-16T08:40:24;11.75;;;4.50;;
74900;SDS011;63461;51.416;6.758;2023-07-16T08:42:50;11.10;;;4.18;;
74900;SDS011;63461;51.416;6.758;2023-07-16T08:45:16;14.95;;;4.25;;
74900;SDS011;63461;51.416;6.758;2023-07-16T08:47:43;10.88;;;3.70;;
74900;SDS011;63461;51.416;6.758;2023-07-16T08:50:08;7.97;;;3.53;;
74900;SDS011;63461;51.416;6.758;2023-07-16T08:52:35;13.13;;;4.20;;
74900;SDS011;63461;51.416;6.758;2023-07-16T08:55:01;13.93;;;4.57;;
74900;SDS011;63461;51.416;6.758;2023-07-16T08:57:27;11.00;;;4.25;;
74900;SDS011;63461;51.416;6.758;2023-07-16T08:59:54;10.68;;;3.47;;
74900;SDS011;63461;51.416;6.758;2023-07-16T09:02:21;13.63;;;4.00;;
74900;SDS011;63461;51.416;6.758;2023-07-16T09:04:48;9.50;;;3.78;;
74900;SDS011;63461;51.416;6.758;2023-07-16T09:07:16;13.90;;;4.38;;
74900;SDS011;63461;51.416;6.758;2023-07-16T09:09:42;12.95;;;3.72;;
74900;SDS011;63461;51.416;6.758;2023-07-16T09:12:11;6.57;;;3.17;;
74900;SDS011;63461;51.416;6.758;2023-07-16T09:14:40;14.40;;;4.13;;
74900;SDS011;63461;51.416;6.758;2023-07-16T09:17:07;14.60;;;3.83;;
74900;SDS011;63461;51.416;6.758;2023-07-16T09:19:32;8.40;;;3.53;;
74900;SDS011;63461;51.416;6.758;2023-07-16T09:21:58;9.23;;;3.53;;
74900;SDS011;63461;51.416;6.758;2023-07-16T09:24:25;13.68;;;3.85;;
74900;SDS011;63461;51.416;6.758;2023-07-16T09:26:51;7.97;;;2.70;;
74900;SDS011;63461;51.416;6.758;2023-07-16T09:29:18;8.23;;;3.38;;
74900;SDS011;63461;51.416;6.758;2023-07-16T09:31:58;9.07;;;2.55;;
74900;SDS011;63461;51.416;6.758;2023-07-16T09:34:27;9.20;;;3.65;;
74900;SDS011;63461;51.416;6.758;2023-07-16T09:36:53;8.35;;;3.55;;
74900;SDS011;63461;51.416;6.758;2023-07-16T09:39:19;6.97;;;3.47;;
74900;SDS011;63461;51.416;6.758;2023-07-16T09:41:49;10.80;;;4.25;;
74900;SDS011;63461;51.416;6.758;2023-07-16T09:44:15;10.80;;;3.90;;
74900;SDS011;63461;51.416;6.758;2023-07-16T09:46:42;8.15;;;3.50;;
74900;SDS011;63461;51.416;6.758;2023-07-16T09:49:09;18.42;;;4.80;;
74900;SDS011;63461;51.416;6.758;2023-07-16T09:51:38;11.98;;;4.30;;
74900;SDS011;63461;51.416;6.758;2023-07-16T09:54:04;14.63;;;4.72;;
74900;SDS011;63461;51.416;6.758;2023-07-16T09:56:35;8.65;;;3.35;;
74900;SDS011;63461;51.416;6.758;2023-07-16T09:59:12;8.65;;;3.88;;
74900;SDS011;63461;51.416;6.758;2023-07-16T10:01:40;10.55;;;3.47;;
74900;SDS011;63461;51.416;6.758;2023-07-16T10:04:13;12.55;;;3.97;;
74900;SDS011;63461;51.416;6.758;2023-07-16T10:06:50;10.77;;;3.22;;
74900;SDS011;63461;51.416;6.758;2023-07-16T10:09:38;10.07;;;4.43;;
74900;SDS011;63461;51.416;6.758;2023-07-16T10:12:18;12.57;;;3.88;;
74900;SDS011;63461;51.416;6.758;2023-07-16T10:14:46;8.85;;;3.53;;
74900;SDS011;63461;51.416;6.758;2023-07-16T10:17:20;12.20;;;3.65;;
74900;SDS011;63461;51.416;6.758;2023-07-16T10:19:48;11.00;;;4.18;;
74900;SDS011;63461;51.416;6.758;2023-07-16T10:22:14;13.32;;;7.03;;
74900;SDS011;63461;51.416;6.758;2023-07-16T10:24:40;13.77;;;6.25;;
74900;SDS011;63461;51.416;6.758;2023-07-16T10:27:06;17.67;;;6.80;;
74900;SDS011;63461;51.416;6.758;2023-07-16T10:29:32;16.48;;;7.35;;
74900;SDS011;63461;51.416;6.758;2023-07-16T10:31:58;16.23;;;6.45;;
74900;SDS011;63461;51.416;6.758;2023-07-16T10:34:24;11.73;;;4.47;;
74900;SDS011;63461;51.416;6.758;2023-07-16T10:36:51;14.57;;;5.93;;
74900;SDS011;63461;51.416;6.758;2023-07-16T10:39:17;10.18;;;4.10;;
74900;SDS011;63461;51.416;6.758;2023-07-16T10:41:42;14.88;;;6.65;;
74900;SDS011;63461;51.416;6.758;2023-07-16T10:44:08;14.65;;;5.20;;
74900;SDS011;63461;51.416;6.758;2023-07-16T10:46:35;13.13;;;4.15;;
74900;SDS011;63461;51.416;6.758;2023-07-16T10:49:01;11.68;;;4.70;;
74900;SDS011;63461;51.416;6.758;2023-07-16T10:51:28;10.57;;;4.22;;
74900;SDS011;63461;51.416;6.758;2023-07-16T10:53:56;10.05;;;4.45;;
74900;SDS011;63461;51.416;6.758;2023-07-16T10:56:22;10.60;;;4.30;;
74900;SDS011;63461;51.416;6.758;2023-07-16T10:58:48;7.88;;;3.92;;
74900;SDS011;63461;51.416;6.758;2023-07-16T11:01:14;9.90;;;3.35;;
74900;SDS011;63461;51.416;6.758;2023-07-16T11:03:40;8.75;;;3.47;;
74900;SDS011;63461;51.416;6.758;2023-07-16T11:06:06;8.40;;;3.22;;
74900;SDS011;63461;51.416;6.758;2023-07-16T11:08:33;8.98;;;3.47;;
74900;SDS011;63461;51.416;6.758;2023-07-16T11:10:59;13.88;;;3.50;;
74900;SDS011;63461;51.416;6.758;2023-07-16T11:13:28;6.95;;;2.92;;
74900;SDS011;63461;51.416;6.758;2023-07-16T11:15:56;9.95;;;3.10;;
74900;SDS011;63461;51.416;6.758;2023-07-16T11:18:23;7.88;;;3.35;;
74900;SDS011;63461;51.416;6.758;2023-07-16T11:20:52;8.07;;;3.17;;
74900;SDS011;63461;51.416;6.758;2023-07-16T11:23:18;7.57;;;3.47;;
74900;SDS011;63461;51.416;6.758;2023-07-16T11:25:51;6.80;;;3.40;;
74900;SDS011;63461;51.416;6.758;2023-07-16T11:28:17;6.40;;;3.00;;
74900;SDS011;63461;51.416;6.758;2023-07-16T11:30:43;8.48;;;3.10;;
74900;SDS011;63461;51.416;6.758;2023-07-16T11:33:12;9.95;;;3.83;;
74900;SDS011;63461;51.416;6.758;2023-07-16T11:35:38;5.93;;;2.58;;
74900;SDS011;63461;51.416;6.758;2023-07-16T11:38:05;9.18;;;2.80;;
74900;SDS011;63461;51.416;6.758;2023-07-16T11:40:33;7.25;;;2.80;;
74900;SDS011;63461;51.416;6.758;2023-07-16T11:43:07;9.02;;;2.92;;
74900;SDS011;63461;51.416;6.758;2023-07-16T11:45:36;5.43;;;3.08;;
74900;SDS011;63461;51.416;6.758;2023-07-16T11:48:03;9.52;;;3.70;;
74900;SDS011;63461;51.416;6.758;2023-07-16T11:50:29;7.47;;;3.10;;
74900;SDS011;63461;51.416;6.758;2023-07-16T11:52:56;6.32;;;2.95;;
74900;SDS011;63461;51.416;6.758;2023-07-16T11:55:24;5.97;;;3.17;;
74900;SDS011;63461;51.416;6.758;2023-07-16T11:57:50;6.13;;;2.70;;
74900;SDS011;63461;51.416;6.758;2023-07-16T12:00:16;9.18;;;3.47;;
74900;SDS011;63461;51.416;6.758;2023-07-16T12:02:42;8.13;;;3.45;;
74900;SDS011;63461;51.416;6.758;2023-07-16T12:05:16;12.20;;;3.20;;
74900;SDS011;63461;51.416;6.758;2023-07-16T12:07:42;6.97;;;3.08;;
74900;SDS011;63461;51.416;6.758;2023-07-16T12:10:08;8.93;;;3.50;;
74900;SDS011;63461;51.416;6.758;2023-07-16T12:12:34;7.88;;;2.78;;
74900;SDS011;63461;51.416;6.758;2023-07-16T12:15:06;7.43;;;3.20;;
74900;SDS011;63461;51.416;6.758;2023-07-16T12:17:33;8.65;;;3.50;;
74900;SDS011;63461;51.416;6.758;2023-07-16T12:19:59;7.22;;;2.97;;
74900;SDS011;63461;51.416;6.758;2023-07-16T12:22:25;6.15;;;2.45;;
74900;SDS011;63461;51.416;6.758;2023-07-16T12:24:52;8.70;;;3.33;;
74900;SDS011;63461;51.416;6.758;2023-07-16T12:27:18;10.48;;;2.67;;
74900;SDS011;63461;51.416;6.758;2023-07-16T12:29:45;7.45;;;2.60;;
74900;SDS011;63461;51.416;6.758;2023-07-16T12:32:11;8.80;;;3.13;;
74900;SDS011;63461;51.416;6.758;2023-07-16T12:34:38;9.48;;;2.70;;
74900;SDS011;63461;51.416;6.758;2023-07-16T12:37:04;10.13;;;3.10;;
74900;SDS011;63461;51.416;6.758;2023-07-16T12:39:30;7.50;;;3.30;;
74900;SDS011;63461;51.416;6.758;2023-07-16T12:41:55;7.97;;;3.40;;
74900;SDS011;63461;51.416;6.758;2023-07-16T12:44:21;6.18;;;3.10;;
74900;SDS011;63461;51.416;6.758;2023-07-16T12:46:47;7.35;;;2.63;;
74900;SDS011;63461;51.416;6.758;2023-07-16T12:49:12;7.78;;;2.90;;
74900;SDS011;63461;51.416;6.758;2023-07-16T12:51:38;9.77;;;3.20;;
74900;SDS011;63461;51.416;6.758;2023-07-16T12:54:04;8.70;;;3.03;;
74900;SDS011;63461;51.416;6.758;2023-07-16T12:56:30;6.60;;;3.30;;
74900;SDS011;63461;51.416;6.758;2023-07-16T12:58:56;4.90;;;2.78;;
74900;SDS011;63461;51.416;6.758;2023-07-16T13:01:22;6.88;;;3.17;;
74900;SDS011;63461;51.416;6.758;2023-07-16T13:03:48;11.40;;;2.85;;
74900;SDS011;63461;51.416;6.758;2023-07-16T13:06:13;7.70;;;2.40;;
74900;SDS011;63461;51.416;6.758;2023-07-16T13:08:39;5.65;;;2.88;;
74900;SDS011;63461;51.416;6.758;2023-07-16T13:11:05;7.15;;;3.05;;
74900;SDS011;63461;51.416;6.758;2023-07-16T13:13:31;10.95;;;3.17;;
74900;SDS011;63461;51.416;6.758;2023-07-16T13:15:56;6.07;;;2.70;;
74900;SDS011;63461;51.416;6.758;2023-07-16T13:18:22;4.70;;;2.40;;
74900;SDS011;63461;51.416;6.758;2023-07-16T13:20:48;5.63;;;2.65;;
74900;SDS011;63461;51.416;6.758;2023-07-16T13:23:14;6.45;;;2.88;;
74900;SDS011;63461;51.416;6.758;2023-07-16T13:25:39;6.70;;;2.50;;
74900;SDS011;63461;51.416;6.758;2023-07-16T13:28:06;4.82;;;2.50;;
74900;SDS011;63461;51.416;6.758;2023-07-16T13:30:32;6.18;;;2.80;;
74900;SDS011;63461;51.416;6.758;2023-07-16T13:32:58;8.48;;;2.85;;
74900;SDS011;63461;51.416;6.758;2023-07-16T13:35:24;6.55;;;2.25;;
74900;SDS011;63461;51.416;6.758;2023-07-16T13:37:50;6.60;;;2.55;;
74900;SDS011;63461;51.416;6.758;2023-07-16T13:40:16;7.22;;;2.60;;
74900;SDS011;63461;51.416;6.758;2023-07-16T13:42:45;5.88;;;2.50;;
74900;SDS011;63461;51.416;6.758;2023-07-16T13:45:14;5.60;;;2.00;;
74900;SDS011;63461;51.416;6.758;2023-07-16T13:47:39;3.95;;;2.30;;
74900;SDS011;63461;51.416;6.758;2023-07-16T13:50:06;9.70;;;2.67;;
74900;SDS011;63461;51.416;6.758;2023-07-16T13:52:33;4.72;;;2.47;;
74900;SDS011;63461;51.416;6.758;2023-07-16T13:54:58;6.03;;;2.70;;
74900;SDS011;63461;51.416;6.758;2023-07-16T13:57:25;5.78;;;2.60;;
74900;SDS011;63461;51.416;6.758;2023-07-16T13:59:53;4.60;;;2.05;;
74900;SDS011;63461;51.416;6.758;2023-07-16T14:02:19;5.38;;;2.42;;
74900;SDS011;63461;51.416;6.758;2023-07-16T14:04:48;4.18;;;2.45;;
74900;SDS011;63461;51.416;6.758;2023-07-16T14:07:14;5.55;;;2.50;;
74900;SDS011;63461;51.416;6.758;2023-07-16T14:09:40;4.53;;;2.20;;
74900;SDS011;63461;51.416;6.758;2023-07-16T14:12:05;4.90;;;2.55;;
74900;SDS011;63461;51.416;6.758;2023-07-16T14:14:32;5.40;;;2.30;;
74900;SDS011;63461;51.416;6.758;2023-07-16T14:16:58;6.22;;;2.10;;
74900;SDS011;63461;51.416;6.758;2023-07-16T14:19:24;6.47;;;2.10;;
74900;SDS011;63461;51.416;6.758;2023-07-16T14:21:49;5.15;;;2.45;;
74900;SDS011;63461;51.416;6.758;2023-07-16T14:24:15;5.43;;;2.40;;
74900;SDS011;63461;51.416;6.758;2023-07-16T14:26:41;5.35;;;2.15;;
74900;SDS011;63461;51.416;6.758;2023-07-16T14:29:07;6.45;;;2.40;;
74900;SDS011;63461;51.416;6.758;2023-07-16T14:31:33;4.30;;;1.95;;
74900;SDS011;63461;51.416;6.758;2023-07-16T14:33:58;5.20;;;1.95;;
74900;SDS011;63461;51.416;6.758;2023-07-16T14:36:24;3.45;;;1.75;;
74900;SDS011;63461;51.416;6.758;2023-07-16T14:38:50;5.78;;;1.77;;
74900;SDS011;63461;51.416;6.758;2023-07-16T14:41:16;5.15;;;2.10;;
74900;SDS011;63461;51.416;6.758;2023-07-16T14:43:42;4.35;;;2.35;;
74900;SDS011;63461;51.416;6.758;2023-07-16T14:46:08;5.53;;;1.90;;